Rosewood, Minnesota
Current Conditions -  °F | °C
As of 9:55 AM on Friday 28 Nov 2014 (Local Time) from KTVF Reporting Station
Overcast Overcast  
Wind Chill: -2°   Ceiling: 4800
Heat Index: 10°   Visibility: 4mi
Dew Point:   Wind: 9mph
Humidity: 85%   Direction: 120°ESE
Pressure: 29.94"   Gusts: NA
Location:  48.0818°N, 96.1186°W
Report Text: KTVF 281555Z AUTO 12008KT 4SM SCT036 BKN048 OVC070 M12/M14 A2994 RMK AO1
Loading
Personal Weather Stations






























Interactive Weather Map New forecast layout! Learn more

10-Day Weather Forecast

Advertisements
Track Severe Weather on mobile